createdAt,value
2023-05-24T00:01:33.512Z,8.60
2023-05-24T00:05:47.232Z,9.65
2023-05-24T00:10:10.783Z,9.75
2023-05-24T00:14:23.555Z,7.25
2023-05-24T00:18:42.000Z,8.05
2023-05-24T00:22:54.516Z,6.95
2023-05-24T00:27:08.051Z,8.48
2023-05-24T00:31:24.208Z,7.80
2023-05-24T00:35:36.994Z,8.38
2023-05-24T00:39:51.952Z,11.60
2023-05-24T00:44:04.921Z,7.32
2023-05-24T00:48:17.463Z,7.45
2023-05-24T00:52:30.320Z,7.53
2023-05-24T00:56:46.215Z,8.60
2023-05-24T01:01:03.374Z,7.78
2023-05-24T01:05:17.761Z,9.95
2023-05-24T01:09:44.262Z,11.27
2023-05-24T01:14:26.809Z,7.65
2023-05-24T01:18:44.643Z,11.25
2023-05-24T01:23:08.940Z,6.75
2023-05-24T01:27:24.334Z,8.73
2023-05-24T01:31:37.789Z,7.15
2023-05-24T01:35:52.590Z,10.85
2023-05-24T01:40:08.523Z,8.00
2023-05-24T01:44:40.920Z,6.78
2023-05-24T01:49:21.477Z,11.63
2023-05-24T01:57:51.060Z,7.47
2023-05-24T02:02:04.170Z,11.20
2023-05-24T02:06:16.677Z,11.30
2023-05-24T02:10:29.105Z,8.88
2023-05-24T02:14:44.328Z,10.40
2023-05-24T02:18:59.857Z,8.55
2023-05-24T02:23:12.590Z,6.40
2023-05-24T02:27:25.078Z,9.25
2023-05-24T02:31:37.694Z,10.00
2023-05-24T02:35:50.391Z,9.75
2023-05-24T02:40:06.478Z,8.90
2023-05-24T02:44:19.479Z,9.35
2023-05-24T02:48:32.741Z,8.50
2023-05-24T02:52:45.522Z,7.63
2023-05-24T02:56:58.361Z,7.57
2023-05-24T03:01:12.791Z,7.20
2023-05-24T03:05:25.895Z,8.60
2023-05-24T03:09:38.570Z,10.43
2023-05-24T03:13:51.088Z,5.82
2023-05-24T03:18:04.036Z,11.98
2023-05-24T03:22:16.998Z,8.07
2023-05-24T03:26:30.092Z,9.30
2023-05-24T03:30:43.019Z,9.00
2023-05-24T03:34:57.891Z,9.48
2023-05-24T03:39:10.662Z,9.20
2023-05-24T03:43:39.120Z,9.27
2023-05-24T03:47:54.273Z,8.48
2023-05-24T03:52:06.775Z,7.82
2023-05-24T03:56:19.164Z,6.93
2023-05-24T04:00:31.635Z,7.43
2023-05-24T04:04:44.437Z,8.50
2023-05-24T04:09:00.606Z,11.60
2023-05-24T04:13:13.128Z,8.98
2023-05-24T04:17:26.037Z,8.10
2023-05-24T04:21:40.449Z,7.28
2023-05-24T04:25:52.929Z,8.80
2023-05-24T04:30:06.141Z,7.55
2023-05-24T04:34:22.616Z,6.75
2023-05-24T04:38:36.524Z,7.28
2023-05-24T04:42:49.869Z,7.32
2023-05-24T04:47:04.198Z,15.23
2023-05-24T04:51:18.102Z,8.05
2023-05-24T04:55:30.511Z,5.60
2023-05-24T04:59:43.026Z,7.32
2023-05-24T05:03:55.498Z,8.50
2023-05-24T05:08:08.176Z,7.70
2023-05-24T05:12:20.549Z,7.22
2023-05-24T05:16:33.153Z,8.80
2023-05-24T05:20:49.167Z,7.28
2023-05-24T05:25:02.001Z,7.45
2023-05-24T05:29:14.646Z,7.53
2023-05-24T05:33:27.594Z,13.20
2023-05-24T05:37:40.439Z,7.72
2023-05-24T05:41:53.205Z,9.20
2023-05-24T05:46:05.780Z,7.43
2023-05-24T05:50:18.531Z,5.18
2023-05-24T05:54:31.716Z,10.13
2023-05-24T05:58:44.383Z,12.15
2023-05-24T06:02:56.732Z,12.93
2023-05-24T06:07:09.217Z,9.35
2023-05-24T06:11:21.632Z,9.27
2023-05-24T06:15:34.742Z,13.52
2023-05-24T06:19:47.199Z,7.72
2023-05-24T06:24:00.167Z,9.20
2023-05-24T06:28:12.515Z,9.18
2023-05-24T06:32:24.995Z,11.02
2023-05-24T06:36:41.622Z,10.30
2023-05-24T06:40:54.721Z,8.75
2023-05-24T06:45:08.736Z,12.57
2023-05-24T06:49:21.412Z,9.02
2023-05-24T06:53:33.938Z,12.55
2023-05-24T06:57:46.472Z,12.07
2023-05-24T07:02:01.904Z,10.23
2023-05-24T07:06:16.774Z,12.40
2023-05-24T07:10:29.224Z,13.65
2023-05-24T07:14:41.936Z,9.98
2023-05-24T07:18:55.973Z,11.32
2023-05-24T07:23:08.410Z,12.52
2023-05-24T07:27:20.959Z,11.73
2023-05-24T07:31:34.993Z,11.52
2023-05-24T07:35:51.748Z,10.48
2023-05-24T07:40:05.814Z,13.02
2023-05-24T07:44:20.149Z,12.68
2023-05-24T07:48:32.470Z,17.92
2023-05-24T07:52:45.884Z,14.55
2023-05-24T07:56:58.308Z,13.48
2023-05-24T08:01:10.627Z,12.30
2023-05-24T08:05:23.405Z,14.00
2023-05-24T08:09:36.681Z,15.80
2023-05-24T08:13:49.039Z,18.63
2023-05-24T08:18:01.535Z,12.77
2023-05-24T08:22:14.010Z,15.20
2023-05-24T08:26:26.781Z,7.82
2023-05-24T08:30:39.065Z,11.82
2023-05-24T08:34:57.698Z,16.98
2023-05-24T08:39:13.112Z,16.73
2023-05-24T08:43:27.235Z,7.63
2023-05-24T08:47:40.515Z,12.35
2023-05-24T08:51:53.659Z,16.30
2023-05-24T08:56:09.218Z,9.20
2023-05-24T09:00:22.265Z,8.35
2023-05-24T09:04:36.333Z,10.00
2023-05-24T09:08:52.744Z,9.73
2023-05-24T09:13:07.216Z,8.55
2023-05-24T09:17:21.438Z,10.00
2023-05-24T09:21:34.313Z,11.95
2023-05-24T09:25:47.713Z,10.85
2023-05-24T09:30:00.196Z,10.07
2023-05-24T09:34:16.933Z,10.70
2023-05-24T09:38:30.003Z,9.80
2023-05-24T09:42:42.760Z,8.57
2023-05-24T09:47:02.240Z,10.60
2023-05-24T09:51:16.238Z,11.85
2023-05-24T09:55:28.658Z,8.77
2023-05-24T09:59:43.224Z,7.55
2023-05-24T10:03:57.414Z,12.70
2023-05-24T10:08:10.652Z,10.00
2023-05-24T10:12:25.265Z,13.95
2023-05-24T10:16:40.255Z,13.15
2023-05-24T10:20:58.257Z,12.75
2023-05-24T10:25:16.807Z,10.60
2023-05-24T10:30:16.848Z,11.63
2023-05-24T10:34:31.042Z,9.48
2023-05-24T10:38:44.136Z,9.90
2023-05-24T10:42:56.687Z,12.93
2023-05-24T10:47:17.197Z,8.20
2023-05-24T10:51:39.725Z,8.98
2023-05-24T10:56:01.449Z,11.43
2023-05-24T11:04:48.004Z,8.32
2023-05-24T11:09:01.272Z,5.80
2023-05-24T11:13:14.018Z,9.45
2023-05-24T11:17:26.670Z,11.85
2023-05-24T11:21:41.620Z,9.70
2023-05-24T11:25:53.991Z,9.45
2023-05-24T11:30:07.668Z,10.77
2023-05-24T11:34:23.797Z,10.15
2023-05-24T11:38:37.740Z,9.75
2023-05-24T11:42:50.923Z,11.07
2023-05-24T11:47:05.497Z,8.38
2023-05-24T11:51:17.812Z,10.80
2023-05-24T11:55:30.465Z,10.40
2023-05-24T11:59:42.868Z,8.80
2023-05-24T12:03:55.902Z,9.55
2023-05-24T12:08:13.995Z,11.93
2023-05-24T12:12:30.815Z,7.85
2023-05-24T12:16:50.744Z,11.88
2023-05-24T12:21:08.794Z,14.27
2023-05-24T12:25:23.483Z,10.02
2023-05-24T12:29:42.087Z,12.73
2023-05-24T12:33:54.730Z,11.23
2023-05-24T12:38:09.398Z,10.85
2023-05-24T12:42:24.206Z,10.35
2023-05-24T12:46:36.736Z,13.43
2023-05-24T12:50:49.072Z,14.90
2023-05-24T12:55:01.924Z,15.80
2023-05-24T12:59:14.440Z,14.27
2023-05-24T13:03:26.775Z,13.55
2023-05-24T13:07:40.347Z,11.57
2023-05-24T13:11:52.987Z,9.32
2023-05-24T13:16:09.238Z,9.40
2023-05-24T13:20:24.461Z,12.05
2023-05-24T13:24:45.825Z,10.77
2023-05-24T13:29:30.673Z,10.30
2023-05-24T13:33:33.913Z,9.88
2023-05-24T13:37:46.511Z,13.75
2023-05-24T13:42:01.278Z,11.02
2023-05-24T13:46:14.884Z,9.38
2023-05-24T13:50:27.273Z,12.60
2023-05-24T13:54:39.801Z,11.60
2023-05-24T13:58:53.682Z,9.93
2023-05-24T14:03:06.656Z,9.57
2023-05-24T14:07:19.982Z,10.10
2023-05-24T14:11:32.753Z,14.20
2023-05-24T14:15:47.121Z,10.05
2023-05-24T14:20:01.678Z,13.23
2023-05-24T14:24:14.209Z,14.60
2023-05-24T14:28:26.591Z,9.48
2023-05-24T14:32:40.978Z,10.10
2023-05-24T14:36:55.582Z,13.18
2023-05-24T14:41:09.469Z,9.85
2023-05-24T14:45:22.974Z,9.23
2023-05-24T14:49:35.392Z,9.55
2023-05-24T14:53:50.163Z,7.78
2023-05-24T14:58:02.917Z,8.85
2023-05-24T15:02:16.583Z,9.00
2023-05-24T15:06:35.612Z,13.18
2023-05-24T15:10:48.246Z,16.25
2023-05-24T15:15:00.862Z,14.50
2023-05-24T15:19:13.551Z,12.57
2023-05-24T15:23:26.258Z,15.30
2023-05-24T15:27:39.207Z,11.45
2023-05-24T15:31:51.620Z,10.57
2023-05-24T15:36:07.153Z,14.27
2023-05-24T15:40:23.923Z,11.18
2023-05-24T15:44:37.035Z,8.23
2023-05-24T15:48:49.761Z,8.95
2023-05-24T15:53:03.853Z,8.85
2023-05-24T15:57:16.325Z,15.35
2023-05-24T16:01:33.291Z,11.48
2023-05-24T16:05:49.003Z,11.20
2023-05-24T16:10:03.724Z,8.45
2023-05-24T16:14:18.952Z,11.30
2023-05-24T16:18:35.196Z,13.50
2023-05-24T16:22:51.333Z,9.85
2023-05-24T16:27:04.038Z,10.20
2023-05-24T16:31:16.601Z,9.98
2023-05-24T16:35:29.158Z,6.13
2023-05-24T16:39:42.033Z,19.20
2023-05-24T16:43:54.420Z,12.23
2023-05-24T16:48:17.861Z,10.32
2023-05-24T16:52:30.440Z,8.18
2023-05-24T16:56:44.822Z,19.35
2023-05-24T17:00:57.542Z,8.23
2023-05-24T17:05:10.773Z,9.45
2023-05-24T17:09:24.190Z,16.27
2023-05-24T17:13:36.963Z,20.52
2023-05-24T17:17:50.232Z,10.27
2023-05-24T17:22:03.250Z,13.80
2023-05-24T17:26:17.135Z,11.80
2023-05-24T17:30:30.655Z,9.70
2023-05-24T17:34:42.998Z,9.18
2023-05-24T17:38:55.396Z,8.27
2023-05-24T17:43:08.815Z,11.60
2023-05-24T17:47:21.894Z,8.73
2023-05-24T17:51:35.412Z,10.18
2023-05-24T17:55:48.031Z,8.02
2023-05-24T18:00:00.488Z,12.45
2023-05-24T18:04:13.042Z,24.83
2023-05-24T18:08:25.869Z,23.23
2023-05-24T18:12:38.919Z,14.45
2023-05-24T18:16:51.390Z,9.25
2023-05-24T18:21:04.389Z,15.05
2023-05-24T18:25:18.321Z,12.77
2023-05-24T18:29:30.687Z,9.80
2023-05-24T18:37:55.893Z,14.18
2023-05-24T18:42:09.404Z,11.05
2023-05-24T18:46:21.922Z,16.40
2023-05-24T18:50:34.457Z,9.98
2023-05-24T18:54:46.927Z,14.55
2023-05-24T18:59:00.239Z,12.68
2023-05-24T19:03:13.673Z,14.05
2023-05-24T19:07:26.502Z,14.55
2023-05-24T19:11:39.153Z,14.07
2023-05-24T19:15:51.604Z,17.30
2023-05-24T19:20:04.199Z,16.23
2023-05-24T19:24:16.572Z,17.35
2023-05-24T19:28:28.888Z,17.40
2023-05-24T19:32:41.353Z,24.67
2023-05-24T19:36:53.803Z,19.67
2023-05-24T19:41:06.265Z,30.33
2023-05-24T19:45:18.903Z,32.13
2023-05-24T19:49:31.382Z,23.42
2023-05-24T19:53:44.212Z,18.30
2023-05-24T19:57:56.631Z,21.77
2023-05-24T20:02:09.052Z,21.58
2023-05-24T20:06:21.489Z,21.73
2023-05-24T20:10:36.563Z,22.85
2023-05-24T20:14:51.388Z,20.98
2023-05-24T20:19:03.730Z,20.48
2023-05-24T20:23:16.091Z,21.00
2023-05-24T20:27:28.893Z,26.42
2023-05-24T20:31:41.692Z,24.23
2023-05-24T20:35:54.619Z,28.40
2023-05-24T20:40:07.747Z,23.63
2023-05-24T20:44:21.263Z,26.98
2023-05-24T20:48:34.972Z,24.38
2023-05-24T20:52:47.454Z,21.27
2023-05-24T20:57:02.485Z,25.27
2023-05-24T21:01:17.689Z,26.67
2023-05-24T21:05:31.258Z,19.35
2023-05-24T21:09:45.981Z,23.52
2023-05-24T21:14:03.730Z,22.42
2023-05-24T21:18:16.270Z,27.88
2023-05-24T21:22:28.673Z,25.77
2023-05-24T21:26:43.500Z,25.30
2023-05-24T21:30:55.944Z,23.83
2023-05-24T21:35:12.732Z,23.92
2023-05-24T21:39:25.215Z,25.85
2023-05-24T21:43:42.866Z,25.67
2023-05-24T21:47:55.295Z,20.23
2023-05-24T21:52:07.745Z,19.33
2023-05-24T21:56:20.244Z,17.85
2023-05-24T22:00:37.927Z,16.67
2023-05-24T22:04:50.465Z,14.57
2023-05-24T22:09:03.088Z,15.68
2023-05-24T22:13:18.105Z,14.60
2023-05-24T22:17:33.062Z,24.77
2023-05-24T22:21:46.173Z,17.52
2023-05-24T22:25:58.644Z,21.52
2023-05-24T22:30:12.675Z,16.33
2023-05-24T22:34:32.408Z,19.17
2023-05-24T22:38:45.587Z,18.70
2023-05-24T22:42:58.070Z,12.90
2023-05-24T22:47:14.152Z,16.38
2023-05-24T22:51:26.551Z,14.60
2023-05-24T22:55:38.943Z,14.90
2023-05-24T22:59:51.465Z,13.65
2023-05-24T23:08:32.651Z,15.88
2023-05-24T23:12:45.082Z,20.77
2023-05-24T23:17:02.814Z,19.00
2023-05-24T23:21:15.321Z,20.55
2023-05-24T23:25:27.825Z,22.25
2023-05-24T23:29:40.647Z,20.40
2023-05-24T23:33:53.042Z,28.38
2023-05-24T23:38:05.964Z,22.83
2023-05-24T23:42:18.425Z,16.98
2023-05-24T23:46:30.945Z,22.35
2023-05-24T23:50:53.443Z,29.48
2023-05-24T23:55:08.092Z,26.45
2023-05-24T23:59:20.462Z,23.45
